Detall de PIREP

Printer-friendly versionPDF version

[2013/04/10 09:24:00]
Flight IATA:CT3240
Pilot Number:042
Company ICAO:CAT
Aircraft Type:B763/F
PAX:180
Departing Airport: LEPA
Destination Airport: LIRF
Alternate Airport:LIRN
Online: VATSIM
Route:MORSS UM603 ALG UL5 VALMA
Flight Level:F350
No Slew and time accel
No pause
Crash detect
Detect pilot in Cockpit between each 30 and 45 minutes
09:24 Zero fuel Weight: 197001 Lbs, Fuel Weight: 161713 Lbs
09:24 VATSIM:LEPA 100900Z 00000KT 9999 FEW030 18/13 Q1016 NOSIG
09:24 VATSIM:LIRF 100850Z 19006KT 130V230 9999 SCT020 16/11 Q1014 NOSIG
09:25 VOICE CATALONIAN
09:37 Parking Brakes off
09:46 Take-off
09:46 Take off Weight: 356427 Lbs
09:46 Wind: 232º @ 002 Knots Heading: 238º
09:46 POS N39º 33´ 10´´ E002º 43´ 23´´
09:46 Gear Up: 192 Knots
09:46 Flaps:3 at 193 Knots
09:47 Flaps:2 at 193 Knots
09:47 Flaps:1 at 213 Knots
09:47 Flaps:0 at 229 Knots
10:00 TOC
10:00 FuelWeight: 152337 Lb
10:01 Wind:305º@062 Knots Heading: 052º Ground Speed: 485 Knots Altitude 34977 ft
10:16 Wind:310º@077 Knots Heading: 066º Ground Speed: 497 Knots Altitude 35062 ft
10:31 Wind:302º@089 Knots Heading: 058º Ground Speed: 503 Knots Altitude 35059 ft
10:37 TOD
10:37 Fuel Weight: 145777 Lb
10:46 Wind:313º@037 Knots Heading: 064º Ground Speed: 394 Knots Altitude 16315 ft
10:49 Flaps:1 at 289 Knots
10:55 Flaps:2 at 209 Knots
10:56 Flaps:3 at 221 Knots
11:00 Gear Down: 168 Knots
11:00 Flaps:4 at 170 Knots
11:00 Flaps:5 at 169 Knots
11:00 Flaps:6 at 168 Knots
11:01 Wind:029º@004 Knots Heading: 159º Ground Speed: 171 Knots Altitude 1702 ft
11:02 TouchDown:Rate -233 ft/min Speed: 159 Knots
11:03 VATSIM:LIRF 101020Z 19008KT 160V220 9999 FEW020 18/12 Q1014 NOSIG
11:03 Land
11:03 Wind:029º@004 Knots
11:03 Heading: 164º
11:03 Flight Duration: 01:17
11:03 Landing Weight: 339893 Lbs
11:03 POS N41º 47´ 58´´ E012º 13´ 57´´
11:11 Parking brakes on
11:11 Block to Block Duration: 01:34
11:11 Final Fuel: 141272 Lbls
11:11 Spent Fuel: 20440 Lbls
11:11 Flight Length: 534 NM
11:11 TOD Land Length: 137 NM

Exportar CSV

Powered by Drupal - Modified by Danger4k